createdAt,value
2024-05-09T00:01:52.979Z,12.10
2024-05-09T00:07:55.074Z,11.77
2024-05-09T00:13:57.389Z,11.84
2024-05-09T00:19:59.494Z,12.98
2024-05-09T00:26:01.761Z,13.16
2024-05-09T00:32:04.267Z,13.12
2024-05-09T00:38:06.860Z,12.22
2024-05-09T00:44:09.454Z,12.79
2024-05-09T00:50:19.213Z,13.10
2024-05-09T00:56:25.967Z,12.92
2024-05-09T01:02:32.709Z,12.03
2024-05-09T01:08:34.962Z,12.43
2024-05-09T01:14:37.422Z,12.81
2024-05-09T01:20:42.883Z,12.47
2024-05-09T01:26:46.791Z,12.00
2024-05-09T01:32:48.969Z,12.50
2024-05-09T01:38:51.195Z,11.81
2024-05-09T01:44:53.099Z,11.84
2024-05-09T01:50:55.134Z,12.45
2024-05-09T01:56:57.212Z,12.60
2024-05-09T02:02:59.407Z,11.47
2024-05-09T02:09:01.579Z,11.74
2024-05-09T02:15:03.772Z,12.59
2024-05-09T02:21:05.992Z,11.12
2024-05-09T02:27:08.119Z,10.98
2024-05-09T02:33:12.674Z,12.31
2024-05-09T02:39:16.143Z,10.95
2024-05-09T02:45:18.256Z,12.23
2024-05-09T02:51:20.278Z,11.98
2024-05-09T02:57:22.259Z,11.54
2024-05-09T03:03:24.653Z,11.57
2024-05-09T03:09:26.956Z,11.93
2024-05-09T03:15:32.405Z,11.69
2024-05-09T03:21:40.095Z,12.09
2024-05-09T03:27:42.188Z,11.56
2024-05-09T03:33:44.333Z,12.39
2024-05-09T03:39:46.496Z,12.16
2024-05-09T03:45:49.885Z,12.62
2024-05-09T03:51:52.002Z,12.23
2024-05-09T03:57:54.046Z,12.68
2024-05-09T04:03:56.648Z,12.86
2024-05-09T04:09:58.688Z,12.40
2024-05-09T04:16:00.642Z,12.49
2024-05-09T04:22:02.611Z,12.78
2024-05-09T04:28:04.836Z,12.98
2024-05-09T04:34:07.123Z,13.08
2024-05-09T04:40:17.193Z,12.74
2024-05-09T04:46:25.715Z,12.84
2024-05-09T04:52:27.734Z,12.75
2024-05-09T04:58:29.887Z,13.07
2024-05-09T05:04:32.108Z,13.13
2024-05-09T05:10:36.540Z,13.35
2024-05-09T05:16:39.156Z,13.45
2024-05-09T05:22:43.328Z,13.56
2024-05-09T05:28:47.722Z,13.65
2024-05-09T05:34:49.832Z,13.87
2024-05-09T05:40:52.030Z,12.79
2024-05-09T05:46:54.106Z,14.11
2024-05-09T05:52:56.092Z,13.80
2024-05-09T05:58:58.038Z,14.28
2024-05-09T06:05:00.403Z,14.85
2024-05-09T06:11:03.457Z,15.92
2024-05-09T06:17:05.741Z,16.33
2024-05-09T06:23:09.705Z,16.65
2024-05-09T06:29:14.330Z,16.56
2024-05-09T06:35:16.553Z,17.02
2024-05-09T06:41:18.809Z,17.06
2024-05-09T06:47:20.953Z,15.14
2024-05-09T06:53:26.375Z,15.89
2024-05-09T06:59:29.459Z,16.62
2024-05-09T07:05:31.756Z,17.12
2024-05-09T07:11:33.978Z,17.52
2024-05-09T07:17:36.305Z,16.99
2024-05-09T07:23:38.966Z,18.43
2024-05-09T07:29:41.058Z,16.83
2024-05-09T07:35:43.163Z,16.85
2024-05-09T07:41:45.451Z,17.89
2024-05-09T07:49:12.881Z,18.72
2024-05-09T07:54:12.451Z,18.71
2024-05-09T08:00:20.248Z,18.53
2024-05-09T08:06:26.896Z,19.08
2024-05-09T08:12:29.138Z,18.36
2024-05-09T08:18:31.428Z,17.35
2024-05-09T08:24:39.567Z,18.90
2024-05-09T08:30:41.893Z,18.74
2024-05-09T08:36:44.110Z,18.93
2024-05-09T08:42:53.370Z,18.54
2024-05-09T08:48:57.620Z,19.02
2024-05-09T08:55:03.260Z,18.37
2024-05-09T09:01:05.784Z,19.02
2024-05-09T09:07:08.107Z,19.37
2024-05-09T09:13:13.697Z,20.17
2024-05-09T09:19:16.792Z,19.67
2024-05-09T09:25:19.008Z,19.44
2024-05-09T09:31:21.279Z,19.33
2024-05-09T09:37:29.626Z,19.68
2024-05-09T09:43:33.097Z,18.35
2024-05-09T09:49:36.976Z,20.65
2024-05-09T09:55:40.447Z,19.21
2024-05-09T10:01:46.613Z,19.25
2024-05-09T10:07:48.838Z,20.72
2024-05-09T10:13:51.869Z,19.54
2024-05-09T10:20:14.515Z,20.92
2024-05-09T10:26:35.365Z,18.35
2024-05-09T10:32:39.366Z,20.57
2024-05-09T10:38:43.291Z,18.30
2024-05-09T10:44:45.368Z,18.70
2024-05-09T10:50:47.797Z,19.94
2024-05-09T10:56:56.909Z,20.73
2024-05-09T11:02:59.042Z,21.19
2024-05-09T11:09:01.250Z,17.95
2024-05-09T11:15:06.135Z,21.51
2024-05-09T11:21:14.423Z,21.15
2024-05-09T11:27:16.476Z,21.13
2024-05-09T11:33:19.755Z,21.18
2024-05-09T11:39:25.126Z,21.35
2024-05-09T11:45:27.362Z,21.12
2024-05-09T11:51:29.447Z,20.25
2024-05-09T11:57:32.315Z,20.80
2024-05-09T12:03:35.430Z,19.87
2024-05-09T12:09:37.631Z,21.21
2024-05-09T12:15:39.833Z,20.57
2024-05-09T12:21:41.903Z,20.44
2024-05-09T12:27:44.060Z,19.40
2024-05-09T12:33:49.278Z,20.07
2024-05-09T12:39:51.473Z,20.47
2024-05-09T12:45:53.740Z,20.76
2024-05-09T12:51:55.827Z,21.10
2024-05-09T12:57:58.512Z,20.38
2024-05-09T13:04:00.776Z,21.20
2024-05-09T13:10:03.673Z,19.53
2024-05-09T13:16:07.013Z,19.60
2024-05-09T13:22:09.234Z,20.47
2024-05-09T13:28:11.493Z,19.76
2024-05-09T13:34:13.652Z,20.61
2024-05-09T13:40:23.261Z,21.23
2024-05-09T13:46:29.536Z,20.12
2024-05-09T13:52:31.628Z,20.21
2024-05-09T13:58:33.670Z,21.38
2024-05-09T14:04:35.806Z,20.99
2024-05-09T14:10:47.577Z,21.16
2024-05-09T14:16:49.987Z,19.49
2024-05-09T14:22:52.306Z,19.91
2024-05-09T14:28:54.483Z,20.59
2024-05-09T14:34:56.743Z,19.52
2024-05-09T14:40:59.017Z,20.10
2024-05-09T14:47:01.385Z,20.73
2024-05-09T14:53:03.542Z,20.15
2024-05-09T14:59:08.667Z,20.37
2024-05-09T15:05:11.596Z,20.94
2024-05-09T15:11:14.051Z,20.12
2024-05-09T15:17:16.942Z,20.82
2024-05-09T15:23:19.091Z,21.02
2024-05-09T15:29:21.340Z,20.90
2024-05-09T15:35:23.318Z,20.60
2024-05-09T15:41:27.708Z,20.85
2024-05-09T15:47:30.132Z,20.63
2024-05-09T15:53:32.133Z,20.59
2024-05-09T15:59:34.581Z,18.89
2024-05-09T16:05:37.207Z,20.33
2024-05-09T16:11:39.699Z,20.68
2024-05-09T16:17:41.844Z,20.54
2024-05-09T16:23:44.095Z,20.45
2024-05-09T16:29:46.177Z,20.81
2024-05-09T16:35:49.028Z,21.01
2024-05-09T16:41:51.095Z,19.79
2024-05-09T16:47:54.602Z,19.29
2024-05-09T16:53:56.801Z,19.93
2024-05-09T16:59:58.783Z,20.22
2024-05-09T17:06:04.073Z,19.93
2024-05-09T17:12:07.329Z,19.45
2024-05-09T17:18:09.961Z,18.79
2024-05-09T17:24:12.289Z,18.62
2024-05-09T17:30:21.593Z,18.21
2024-05-09T17:36:30.942Z,16.25
2024-05-09T17:42:41.558Z,16.59
2024-05-09T17:48:43.637Z,14.79
2024-05-09T17:54:45.703Z,15.94
2024-05-09T18:00:47.807Z,15.40
2024-05-09T18:06:49.936Z,14.90
2024-05-09T18:13:06.361Z,14.99
2024-05-09T18:19:09.762Z,14.54
2024-05-09T18:25:12.209Z,15.31
2024-05-09T18:31:15.500Z,14.95
2024-05-09T18:37:17.642Z,13.94
2024-05-09T18:43:26.232Z,13.66
2024-05-09T18:49:33.573Z,13.72
2024-05-09T18:55:36.138Z,13.72
2024-05-09T19:01:42.422Z,14.16
2024-05-09T19:07:44.527Z,13.88
2024-05-09T19:13:47.723Z,13.47
2024-05-09T19:19:52.513Z,14.18
2024-05-09T19:25:54.596Z,14.25
2024-05-09T19:31:56.874Z,13.90
2024-05-09T19:37:59.029Z,13.25
2024-05-09T19:44:01.019Z,13.93
2024-05-09T19:50:06.285Z,13.92
2024-05-09T19:56:08.783Z,14.07
2024-05-09T20:02:11.116Z,12.81
2024-05-09T20:08:13.262Z,13.07
2024-05-09T20:14:15.302Z,12.75
2024-05-09T20:20:28.024Z,13.25
2024-05-09T20:26:38.158Z,13.07
2024-05-09T20:32:40.334Z,11.92
2024-05-09T20:38:42.453Z,12.78
2024-05-09T20:44:44.687Z,10.77
2024-05-09T20:50:46.816Z,10.54
2024-05-09T20:56:48.904Z,10.41
2024-05-09T21:02:50.964Z,10.54
2024-05-09T21:08:52.989Z,11.96
2024-05-09T21:14:55.064Z,12.09
2024-05-09T21:20:56.992Z,12.13
2024-05-09T21:26:59.075Z,11.21
2024-05-09T21:33:01.141Z,11.07
2024-05-09T21:39:03.184Z,10.63
2024-05-09T21:45:06.380Z,11.04
2024-05-09T21:51:15.125Z,11.54
2024-05-09T21:57:17.108Z,10.04
2024-05-09T22:03:21.760Z,11.16
2024-05-09T22:09:23.764Z,10.77
2024-05-09T22:15:25.824Z,11.05
2024-05-09T22:21:28.340Z,10.01
2024-05-09T22:27:30.408Z,9.21
2024-05-09T22:33:32.640Z,10.94
2024-05-09T22:39:34.740Z,10.14
2024-05-09T22:45:36.975Z,10.60
2024-05-09T22:51:39.195Z,10.45
2024-05-09T22:57:41.399Z,10.61
2024-05-09T23:03:43.621Z,10.46
2024-05-09T23:09:46.503Z,10.52
2024-05-09T23:15:48.573Z,9.37
2024-05-09T23:21:50.605Z,6.68
2024-05-09T23:27:52.670Z,8.48
2024-05-09T23:33:55.392Z,8.84
2024-05-09T23:39:57.560Z,7.39
2024-05-09T23:45:59.738Z,8.00
2024-05-09T23:52:01.766Z,8.51
2024-05-09T23:58:04.057Z,8.24
